Time;durP1;ratioP1;P1;durP2;ratioP2;P2;SDS_P1;SDS_P2;PMS_P1;PMS_P2;Temp;Humidity;BMP_temperature;BMP_pressure;BME280_temperature;BME280_humidity;BME280_pressure;Samples;Min_cycle;Max_cycle;Signal;HPM_P1;HPM_P2
2022/12/24 00:00:08;;;;;;;0.20;0.10;;;;;;;;;;5042348;28;20072;-84
2022/12/24 00:02:36;;;;;;;0.20;0.10;;;;;;;;;;5054650;28;20454;-84
2022/12/24 00:05:33;;;;;;;;;;;;;;;;;;;;;
2022/12/24 00:08:34;;;;;;;0.20;0.10;;;;;;;;;;5039000;28;20047;-84
2022/12/24 00:11:30;;;;;;;0.20;0.10;;;;;;;;;;4987781;28;20033;-84
2022/12/24 00:14:21;;;;;;;0.20;0.10;;;;;;;;;;5040813;28;20045;-84
2022/12/24 00:17:09;;;;;;;0.20;0.08;;;;;;;;;;5039271;28;20437;-83
2022/12/24 00:23:51;;;;;;;0.20;0.10;;;;;;;;;;4993872;28;20703;-85
2022/12/24 00:37:14;;;;;;;;;;;;;;;;;;;;;
2022/12/24 00:40:33;;;;;;;0.20;0.10;;;;;;;;;;4996009;28;20081;-84
2022/12/24 00:43:14;;;;;;;0.20;0.10;;;;;;;;;;5038277;28;20517;-87
2022/12/24 00:50:09;;;;;;;;;;;;;;;;;;;;;
2022/12/24 00:53:48;;;;;;;;;;;;;;;;;;;;;
2022/12/24 00:56:56;;;;;;;0.20;0.10;;;;;;;;;;4994418;28;20049;-86
2022/12/24 01:03:50;;;;;;;;;;;;;;;;;;;;;
2022/12/24 01:09:55;;;;;;;0.20;0.10;;;;;;;;;;4963911;28;20078;-87
2022/12/24 01:12:24;;;;;;;0.20;0.10;;;;;;;;;;5023322;28;20075;-85
2022/12/24 01:18:16;;;;;;;0.30;0.25;;;;;;;;;;5034032;28;20040;-88
2022/12/24 01:20:58;;;;;;;0.20;0.13;;;;;;;;;;5038214;28;20249;-86
2022/12/24 01:23:24;;;;;;;0.20;0.10;;;;;;;;;;5035221;28;20036;-86
2022/12/24 01:25:50;;;;;;;0.20;0.10;;;;;;;;;;5041893;28;20068;-84
2022/12/24 01:28:17;;;;;;;0.20;0.10;;;;;;;;;;5037207;28;20037;-84
2022/12/24 01:30:43;;;;;;;0.20;0.10;;;;;;;;;;5042925;28;20032;-84
2022/12/24 01:33:09;;;;;;;0.57;0.28;;;;;;;;;;5038962;28;20098;-84
2022/12/24 01:35:39;;;;;;;0.20;0.10;;;;;;;;;;5054993;28;20402;-84
2022/12/24 01:38:08;;;;;;;;;;;;;;;;;;5038464;28;20036;-83
2022/12/24 01:43:23;;;;;;;0.32;0.30;;;;;;;;;;5037703;28;20502;-84
2022/12/24 01:45:50;;;;;;;0.20;0.10;;;;;;;;;;5040555;28;20044;-82
2022/12/24 01:48:19;;;;;;;0.30;0.30;;;;;;;;;;5056318;28;20032;-82
2022/12/24 01:50:46;;;;;;;0.20;0.10;;;;;;;;;;5040083;28;20139;-84
2022/12/24 01:53:13;;;;;;;0.20;0.10;;;;;;;;;;5044533;28;20049;-84
2022/12/24 01:55:40;;;;;;;0.20;0.10;;;;;;;;;;5025572;28;20056;-86
2022/12/24 01:58:07;;;;;;;0.20;0.17;;;;;;;;;;5023666;28;20059;-84
2022/12/24 02:00:33;;;;;;;0.25;0.20;;;;;;;;;;5053302;28;20044;-84
2022/12/24 02:03:01;;;;;;;0.20;0.10;;;;;;;;;;5023636;28;20118;-86
2022/12/24 02:05:44;;;;;;;0.20;0.10;;;;;;;;;;5054080;28;20028;-86
2022/12/24 02:08:10;;;;;;;0.20;0.10;;;;;;;;;;5056124;28;20082;-83
2022/12/24 02:10:36;;;;;;;0.30;0.20;;;;;;;;;;5028425;28;20055;-83
2022/12/24 02:13:03;;;;;;;0.20;0.10;;;;;;;;;;5029102;28;20048;-85
2022/12/24 02:15:35;;;;;;;0.20;0.10;;;;;;;;;;5021428;28;20078;-84
2022/12/24 02:18:14;;;;;;;0.30;0.25;;;;;;;;;;5038366;28;20048;-86
2022/12/24 02:20:40;;;;;;;0.20;0.10;;;;;;;;;;5022243;28;20064;-87
2022/12/24 02:23:21;;;;;;;0.20;0.13;;;;;;;;;;5038596;28;20083;-83
2022/12/24 02:25:50;;;;;;;0.20;0.10;;;;;;;;;;5021876;28;20041;-83
2022/12/24 02:28:29;;;;;;;0.20;0.10;;;;;;;;;;5038025;28;20079;-83
2022/12/24 02:31:04;;;;;;;0.20;0.10;;;;;;;;;;5022481;28;20040;-84
2022/12/24 02:33:49;;;;;;;0.20;0.10;;;;;;;;;;5019854;28;20564;-83
2022/12/24 02:36:31;;;;;;;0.25;0.25;;;;;;;;;;5019651;28;20056;-82
2022/12/24 02:39:02;;;;;;;0.22;0.15;;;;;;;;;;5035740;28;20291;-86
2022/12/24 02:44:20;;;;;;;0.22;0.17;;;;;;;;;;5035327;28;20064;-85
2022/12/24 02:46:47;;;;;;;0.20;0.10;;;;;;;;;;5033739;28;20036;-85
2022/12/24 02:49:19;;;;;;;0.20;0.10;;;;;;;;;;5047653;22;20409;-90
2022/12/24 02:51:55;;;;;;;0.20;0.20;;;;;;;;;;5099219;28;20401;-87
2022/12/24 02:54:46;;;;;;;0.20;0.10;;;;;;;;;;5096270;28;20123;-89
2022/12/24 02:57:34;;;;;;;0.20;0.10;;;;;;;;;;5101685;27;20092;-89
2022/12/24 03:00:22;;;;;;;0.20;0.10;;;;;;;;;;5072113;28;20073;-87
2022/12/24 03:03:10;;;;;;;0.20;0.10;;;;;;;;;;5081465;28;20043;-88
2022/12/24 03:06:03;;;;;;;0.20;0.10;;;;;;;;;;5068647;28;20061;-88
2022/12/24 03:08:35;;;;;;;0.20;0.15;;;;;;;;;;5079614;28;20043;-86
2022/12/24 03:11:28;;;;;;;0.20;0.10;;;;;;;;;;5064780;28;20534;-87
2022/12/24 03:13:55;;;;;;;0.20;0.10;;;;;;;;;;5092092;28;20506;-84
2022/12/24 03:16:30;;;;;;;0.20;0.10;;;;;;;;;;5105264;28;20044;-86
2022/12/24 03:19:06;;;;;;;0.20;0.10;;;;;;;;;;5070819;28;20402;-88
2022/12/24 03:21:32;;;;;;;;;;;;;;;;;;5085821;28;20043;-86
2022/12/24 03:24:04;;;;;;;0.20;0.10;;;;;;;;;;5065901;28;19950;-88
2022/12/24 03:26:38;;;;;;;0.20;0.20;;;;;;;;;;5103505;27;20501;-85
2022/12/24 03:29:05;;;;;;;0.20;0.10;;;;;;;;;;5083524;27;20035;-86
2022/12/24 03:31:53;;;;;;;0.20;0.10;;;;;;;;;;5073181;28;20393;-87
2022/12/24 03:34:22;;;;;;;0.20;0.10;;;;;;;;;;5102490;27;20039;-86
2022/12/24 03:37:01;;;;;;;;;;;;;;;;;;;;;
2022/12/24 03:39:40;;;;;;;0.52;0.52;;;;;;;;;;5105049;27;20104;-84
2022/12/24 03:42:06;;;;;;;0.20;0.10;;;;;;;;;;5084948;28;20066;-85
2022/12/24 03:44:32;;;;;;;0.20;0.10;;;;;;;;;;5087914;28;20045;-85
2022/12/24 03:46:58;;;;;;;0.20;0.10;;;;;;;;;;5104789;28;20035;-85
2022/12/24 03:49:24;;;;;;;0.20;0.10;;;;;;;;;;5068052;28;20100;-87
2022/12/24 03:52:08;;;;;;;0.20;0.10;;;;;;;;;;5084997;28;20040;-85
2022/12/24 03:54:41;;;;;;;0.20;0.10;;;;;;;;;;5076604;28;20036;-86
2022/12/24 03:57:12;;;;;;;0.20;0.10;;;;;;;;;;5089870;27;20043;-86
2022/12/24 03:59:44;;;;;;;0.20;0.10;;;;;;;;;;5066882;28;20046;-84
2022/12/24 04:02:19;;;;;;;0.20;0.10;;;;;;;;;;5099583;27;20055;-85
2022/12/24 04:04:57;;;;;;;0.20;0.10;;;;;;;;;;5081772;28;20039;-87
2022/12/24 04:07:32;;;;;;;0.20;0.10;;;;;;;;;;5089141;28;20119;-85
2022/12/24 04:10:03;;;;;;;0.20;0.10;;;;;;;;;;5107458;27;20047;-86
2022/12/24 04:12:36;;;;;;;0.20;0.10;;;;;;;;;;5090256;28;20031;-87
2022/12/24 04:15:13;;;;;;;0.20;0.08;;;;;;;;;;5072089;28;20049;-86
2022/12/24 04:17:41;;;;;;;0.20;0.10;;;;;;;;;;5083911;28;20570;-86
2022/12/24 04:23:08;;;;;;;0.20;0.10;;;;;;;;;;5087146;28;20048;-87
2022/12/24 04:25:37;;;;;;;0.20;0.10;;;;;;;;;;5071380;27;20144;-87
2022/12/24 04:28:06;;;;;;;0.20;0.20;;;;;;;;;;5084596;28;20504;-83
2022/12/24 04:30:32;;;;;;;0.20;0.10;;;;;;;;;;5090032;28;20508;-83
2022/12/24 04:33:04;;;;;;;0.20;0.10;;;;;;;;;;5084305;28;20051;-87
2022/12/24 04:35:38;;;;;;;0.20;0.10;;;;;;;;;;5068128;28;20081;-86
2022/12/24 04:38:04;;;;;;;0.20;0.10;;;;;;;;;;5105656;27;20031;-87
2022/12/24 04:40:56;;;;;;;0.20;0.10;;;;;;;;;;5099957;28;20494;-85
2022/12/24 04:43:31;;;;;;;0.63;0.20;;;;;;;;;;5071170;28;20722;-84
2022/12/24 04:46:08;;;;;;;0.20;0.10;;;;;;;;;;5064441;28;20040;-83
2022/12/24 04:48:40;;;;;;;4.15;1.65;;;;;;;;;;5070178;28;20043;-87
2022/12/24 04:51:15;;;;;;;0.20;0.10;;;;;;;;;;5071881;28;20043;-83
2022/12/24 04:53:42;;;;;;;0.20;0.20;;;;;;;;;;5070170;28;20043;-83
2022/12/24 04:56:28;;;;;;;0.20;0.10;;;;;;;;;;5106564;27;20096;-84
2022/12/24 04:58:55;;;;;;;0.20;0.10;;;;;;;;;;5088052;28;20036;-85
2022/12/24 05:01:25;;;;;;;0.20;0.10;;;;;;;;;;5087681;28;20452;-86
2022/12/24 05:03:51;;;;;;;0.20;0.10;;;;;;;;;;5083401;28;20032;-82
2022/12/24 05:06:22;;;;;;;0.20;0.10;;;;;;;;;;5105905;28;20397;-83
2022/12/24 05:08:48;;;;;;;0.20;0.10;;;;;;;;;;5063071;27;20055;-83
2022/12/24 05:11:18;;;;;;;0.20;0.10;;;;;;;;;;5071158;28;20050;-86
2022/12/24 05:13:44;;;;;;;0.20;0.10;;;;;;;;;;5087006;28;20047;-83
2022/12/24 05:16:20;;;;;;;0.20;0.10;;;;;;;;;;5104773;28;20093;-84
2022/12/24 05:18:56;;;;;;;0.20;0.10;;;;;;;;;;5066791;28;20040;-83
2022/12/24 05:21:25;;;;;;;0.20;0.10;;;;;;;;;;5071122;28;20057;-84
2022/12/24 05:26:39;;;;;;;0.20;0.10;;;;;;;;;;5079340;28;20089;-84
2022/12/24 05:29:08;;;;;;;0.20;0.10;;;;;;;;;;5062090;28;20039;-85
2022/12/24 05:31:38;;;;;;;0.20;0.10;;;;;;;;;;5084459;28;20268;-84
2022/12/24 05:34:09;;;;;;;0.20;0.10;;;;;;;;;;5083137;28;20086;-84
2022/12/24 05:36:39;;;;;;;0.20;0.10;;;;;;;;;;5083927;28;20059;-82
2022/12/24 05:39:09;;;;;;;0.20;0.10;;;;;;;;;;5061452;28;20039;-82
2022/12/24 05:41:42;;;;;;;0.20;0.10;;;;;;;;;;5066483;28;20115;-84
2022/12/24 05:44:10;;;;;;;0.20;0.10;;;;;;;;;;5081142;28;20055;-83
2022/12/24 05:46:42;;;;;;;0.20;0.10;;;;;;;;;;5067485;28;20502;-83
2022/12/24 05:49:08;;;;;;;0.20;0.10;;;;;;;;;;5083607;28;20036;-85
2022/12/24 05:51:40;;;;;;;0.20;0.10;;;;;;;;;;5081138;28;20112;-85
2022/12/24 05:54:12;;;;;;;0.20;0.10;;;;;;;;;;5088339;28;20050;-84
2022/12/24 05:56:44;;;;;;;0.20;0.10;;;;;;;;;;5103293;28;20044;-83
2022/12/24 05:59:13;;;;;;;0.20;0.10;;;;;;;;;;5064164;28;20244;-84
2022/12/24 06:01:39;;;;;;;0.20;0.10;;;;;;;;;;5084989;28;20132;-83
2022/12/24 06:04:05;;;;;;;0.20;0.10;;;;;;;;;;5086889;28;20051;-83
2022/12/24 06:06:34;;;;;;;0.20;0.10;;;;;;;;;;5086634;28;20043;-84
2022/12/24 06:09:03;;;;;;;0.20;0.00;;;;;;;;;;5069248;28;20036;-83
2022/12/24 06:11:29;;;;;;;0.20;0.10;;;;;;;;;;5068148;28;20071;-82
2022/12/24 06:13:55;;;;;;;0.20;0.10;;;;;;;;;;5086952;28;20048;-83
2022/12/24 06:16:22;;;;;;;0.20;0.10;;;;;;;;;;5086244;28;20039;-83
2022/12/24 06:18:50;;;;;;;0.20;0.10;;;;;;;;;;5087516;28;20042;-84
2022/12/24 06:21:19;;;;;;;0.20;0.10;;;;;;;;;;5089871;28;20118;-84
2022/12/24 06:23:48;;;;;;;0.20;0.10;;;;;;;;;;5086700;28;20040;-85
2022/12/24 06:26:16;;;;;;;0.20;0.10;;;;;;;;;;5088967;28;20036;-82
2022/12/24 06:28:45;;;;;;;0.20;0.10;;;;;;;;;;5101230;28;20491;-85
2022/12/24 06:31:13;;;;;;;0.20;0.10;;;;;;;;;;5088222;27;20031;-86
2022/12/24 06:33:39;;;;;;;0.20;0.10;;;;;;;;;;5086486;28;20134;-85
2022/12/24 06:36:09;;;;;;;3.30;1.10;;;;;;;;;;5101082;27;20040;-83
2022/12/24 06:38:38;;;;;;;0.20;0.10;;;;;;;;;;5090429;28;20471;-84
2022/12/24 06:41:05;;;;;;;0.20;0.10;;;;;;;;;;5083394;28;20046;-84
2022/12/24 06:43:33;;;;;;;0.45;0.30;;;;;;;;;;5082649;27;20035;-86
2022/12/24 06:45:59;;;;;;;0.20;0.10;;;;;;;;;;5067752;28;20717;-84
2022/12/24 06:48:28;;;;;;;0.20;0.10;;;;;;;;;;5059782;28;20443;-84
2022/12/24 06:50:57;;;;;;;0.55;0.35;;;;;;;;;;5084904;27;20032;-86
2022/12/24 06:53:23;;;;;;;0.20;0.10;;;;;;;;;;5092829;28;20040;-83
2022/12/24 06:55:52;;;;;;;0.20;0.00;;;;;;;;;;5105084;27;20071;-85
2022/12/24 06:58:21;;;;;;;0.20;0.10;;;;;;;;;;5084118;28;20044;-83
2022/12/24 07:00:50;;;;;;;0.20;0.10;;;;;;;;;;5068472;27;20094;-85
2022/12/24 07:03:16;;;;;;;0.30;0.30;;;;;;;;;;5088861;28;20036;-84
2022/12/24 07:05:45;;;;;;;0.20;0.10;;;;;;;;;;5065079;28;20438;-85
2022/12/24 07:08:11;;;;;;;0.50;0.20;;;;;;;;;;5076658;28;20058;-86
2022/12/24 07:10:37;;;;;;;0.20;0.10;;;;;;;;;;5079095;28;20509;-84
2022/12/24 07:13:03;;;;;;;0.20;0.10;;;;;;;;;;5085996;28;20051;-84
2022/12/24 07:15:35;;;;;;;0.20;0.10;;;;;;;;;;5064304;28;20047;-84
2022/12/24 07:18:04;;;;;;;0.20;0.10;;;;;;;;;;5104509;27;20448;-86
2022/12/24 07:20:30;;;;;;;0.20;0.08;;;;;;;;;;5079807;28;20128;-84
2022/12/24 07:22:56;;;;;;;11.00;0.95;;;;;;;;;;5087011;27;20059;-83
2022/12/24 07:25:22;;;;;;;0.20;0.20;;;;;;;;;;5100071;27;20035;-84
2022/12/24 07:27:48;;;;;;;0.20;0.10;;;;;;;;;;5103704;27;20031;-84
2022/12/24 07:30:14;;;;;;;0.20;0.10;;;;;;;;;;5085734;28;20069;-84
2022/12/24 07:32:40;;;;;;;0.43;0.22;;;;;;;;;;5106763;27;21691;-83
2022/12/24 07:35:07;;;;;;;0.20;0.10;;;;;;;;;;5071697;28;20046;-83
2022/12/24 07:37:33;;;;;;;4.00;0.35;;;;;;;;;;5070870;28;20078;-83
2022/12/24 07:39:59;;;;;;;0.20;0.10;;;;;;;;;;5086791;28;20573;-83
2022/12/24 07:42:25;;;;;;;0.20;0.10;;;;;;;;;;5085239;27;20120;-82
2022/12/24 07:44:51;;;;;;;0.20;0.10;;;;;;;;;;5108056;27;20551;-84
2022/12/24 07:47:17;;;;;;;0.20;0.10;;;;;;;;;;5088496;28;20039;-84
2022/12/24 07:49:43;;;;;;;0.20;0.10;;;;;;;;;;5084101;28;20073;-82
2022/12/24 07:52:09;;;;;;;0.20;0.10;;;;;;;;;;5083598;28;20040;-83
2022/12/24 07:54:35;;;;;;;0.20;0.10;;;;;;;;;;5087845;28;20055;-82
2022/12/24 07:57:01;;;;;;;0.20;0.10;;;;;;;;;;5092379;28;20043;-83
2022/12/24 07:59:27;;;;;;;0.20;0.10;;;;;;;;;;5066208;28;20039;-82
2022/12/24 08:01:53;;;;;;;6.43;1.70;;;;;;;;;;5106974;27;20225;-82
2022/12/24 08:04:22;;;;;;;0.20;0.10;;;;;;;;;;5085709;28;20043;-83
2022/12/24 08:06:48;;;;;;;0.20;0.10;;;;;;;;;;5085735;28;20486;-82
2022/12/24 08:09:14;;;;;;;0.20;0.10;;;;;;;;;;5085732;28;20097;-82
2022/12/24 08:11:49;;;;;;;2.17;0.90;;;;;;;;;;5084833;28;20071;-83
2022/12/24 08:14:15;;;;;;;0.20;0.10;;;;;;;;;;5099756;27;20040;-84
2022/12/24 08:16:41;;;;;;;0.20;0.10;;;;;;;;;;5083398;28;20042;-83
2022/12/24 08:19:07;;;;;;;0.20;0.10;;;;;;;;;;5102549;28;20044;-83
2022/12/24 08:21:33;;;;;;;0.95;0.43;;;;;;;;;;5103551;28;20052;-83
2022/12/24 08:23:59;;;;;;;0.20;0.10;;;;;;;;;;5084064;28;20051;-83
2022/12/24 08:26:25;;;;;;;0.20;0.10;;;;;;;;;;5082654;28;20032;-83
2022/12/24 08:28:51;;;;;;;1.35;1.25;;;;;;;;;;5063521;28;20619;-83
2022/12/24 08:31:17;;;;;;;0.20;0.10;;;;;;;;;;5101166;27;20035;-84
2022/12/24 08:33:43;;;;;;;0.20;0.10;;;;;;;;;;5086094;27;20039;-83
2022/12/24 08:36:09;;;;;;;0.20;0.10;;;;;;;;;;5084455;28;20055;-83
2022/12/24 08:38:35;;;;;;;1.05;0.95;;;;;;;;;;5098076;28;20429;-82
2022/12/24 08:41:01;;;;;;;0.20;0.10;;;;;;;;;;5099748;28;20520;-84
2022/12/24 08:43:28;;;;;;;0.20;0.10;;;;;;;;;;5095191;28;20031;-82
2022/12/24 08:45:54;;;;;;;0.20;0.03;;;;;;;;;;5062280;28;20035;-82
2022/12/24 08:48:20;;;;;;;0.20;0.10;;;;;;;;;;5079729;28;20085;-84
2022/12/24 08:50:46;;;;;;;0.20;0.10;;;;;;;;;;5090325;22;20351;-85
2022/12/24 08:53:12;;;;;;;0.30;0.30;;;;;;;;;;5077901;28;20039;-85
2022/12/24 08:55:38;;;;;;;0.20;0.10;;;;;;;;;;5097525;28;20047;-87
2022/12/24 08:58:07;;;;;;;0.20;0.10;;;;;;;;;;5076531;28;20175;-87
2022/12/24 09:00:33;;;;;;;0.20;0.10;;;;;;;;;;5045885;28;20297;-86
2022/12/24 09:02:59;;;;;;;0.20;0.10;;;;;;;;;;5052306;28;20123;-85
2022/12/24 09:05:25;;;;;;;0.20;0.08;;;;;;;;;;5042662;28;20111;-86
2022/12/24 09:07:54;;;;;;;0.20;0.10;;;;;;;;;;5048188;28;20504;-86
2022/12/24 09:10:20;;;;;;;0.20;0.10;;;;;;;;;;5053444;28;20047;-88
2022/12/24 09:12:50;;;;;;;0.40;0.40;;;;;;;;;;5072165;28;20515;-84
2022/12/24 09:15:16;;;;;;;0.20;0.10;;;;;;;;;;5056143;28;20437;-85
2022/12/24 09:17:43;;;;;;;0.20;0.10;;;;;;;;;;5054015;28;20135;-87
2022/12/24 09:20:11;;;;;;;0.20;0.10;;;;;;;;;;5071099;28;20557;-86
2022/12/24 09:22:39;;;;;;;0.20;0.10;;;;;;;;;;5074326;28;20052;-86
2022/12/24 09:25:11;;;;;;;0.20;0.10;;;;;;;;;;5051305;28;20040;-86
2022/12/24 09:27:37;;;;;;;0.20;0.17;;;;;;;;;;5052576;28;20102;-86
2022/12/24 09:30:06;;;;;;;0.20;0.10;;;;;;;;;;5054982;28;20051;-86
2022/12/24 09:32:33;;;;;;;0.20;0.10;;;;;;;;;;5050069;28;20617;-86
2022/12/24 09:34:59;;;;;;;0.63;0.63;;;;;;;;;;5070784;28;20135;-86
2022/12/24 09:37:28;;;;;;;0.20;0.00;;;;;;;;;;5053988;28;20406;-85
2022/12/24 09:39:56;;;;;;;0.20;0.10;;;;;;;;;;5050290;28;20068;-86
2022/12/24 09:42:28;;;;;;;0.35;0.20;;;;;;;;;;5052700;28;20052;-86
2022/12/24 09:44:58;;;;;;;0.52;0.52;;;;;;;;;;5051822;28;20040;-85
2022/12/24 09:47:45;;;;;;;0.20;0.10;;;;;;;;;;5068864;28;20043;-86
2022/12/24 09:50:29;;;;;;;0.30;0.20;;;;;;;;;;5053222;28;20076;-85
2022/12/24 09:52:56;;;;;;;0.20;0.10;;;;;;;;;;5066596;28;20032;-85
2022/12/24 09:55:42;;;;;;;0.20;0.10;;;;;;;;;;5056126;28;20505;-86
2022/12/24 09:58:14;;;;;;;0.38;0.32;;;;;;;;;;5034479;28;20697;-84
2022/12/24 10:00:41;;;;;;;0.20;0.10;;;;;;;;;;5048068;28;20127;-87
2022/12/24 10:03:16;;;;;;;0.20;0.10;;;;;;;;;;5073198;28;20051;-87
2022/12/24 10:05:55;;;;;;;0.20;0.10;;;;;;;;;;5060036;28;20164;-84
2022/12/24 10:08:47;;;;;;;0.20;0.10;;;;;;;;;;5057806;28;20036;-86
2022/12/24 10:11:22;;;;;;;0.20;0.10;;;;;;;;;;5059168;28;20055;-88
2022/12/24 10:13:48;;;;;;;0.20;0.10;;;;;;;;;;5056296;28;20088;-89
2022/12/24 10:16:13;;;;;;;1.65;0.55;;;;;;;;;;5074512;28;20453;-88
2022/12/24 10:19:00;;;;;;;0.20;0.10;;;;;;;;;;5058510;28;20033;-87
2022/12/24 10:21:26;;;;;;;0.20;0.10;;;;;;;;;;5055090;28;20490;-85
2022/12/24 10:23:54;;;;;;;0.20;0.10;;;;;;;;;;5055781;28;20491;-86
2022/12/24 10:26:26;;;;;;;0.20;0.10;;;;;;;;;;5077214;28;20099;-88
2022/12/24 10:29:21;;;;;;;0.20;0.10;;;;;;;;;;5054995;28;20036;-88
2022/12/24 10:32:16;;;;;;;0.20;0.10;;;;;;;;;;5030573;28;20674;-86
2022/12/24 10:35:00;;;;;;;0.20;0.10;;;;;;;;;;5039683;28;20075;-87
2022/12/24 10:37:42;;;;;;;0.20;0.10;;;;;;;;;;5056632;28;20047;-87
2022/12/24 10:40:42;;;;;;;0.20;0.10;;;;;;;;;;5057559;28;20044;-87
2022/12/24 10:43:21;;;;;;;0.20;0.10;;;;;;;;;;5055867;28;20036;-90
2022/12/24 10:45:55;;;;;;;2.40;0.50;;;;;;;;;;5053158;28;20067;-87
2022/12/24 10:48:50;;;;;;;0.20;0.20;;;;;;;;;;5075083;28;20132;-86
2022/12/24 10:51:53;;;;;;;0.20;0.10;;;;;;;;;;5005257;28;20033;-87
2022/12/24 10:54:19;;;;;;;;;;;;;;;;;;5058272;28;20044;-88
2022/12/24 10:57:04;;;;;;;0.20;0.00;;;;;;;;;;5040290;28;19928;-86
2022/12/24 10:59:33;;;;;;;0.35;0.25;;;;;;;;;;5055924;28;20036;-88
2022/12/24 11:02:00;;;;;;;0.45;0.45;;;;;;;;;;5071663;28;20028;-85
2022/12/24 11:04:28;;;;;;;0.20;0.10;;;;;;;;;;5056804;28;20158;-86
2022/12/24 11:06:58;;;;;;;0.20;0.10;;;;;;;;;;5077039;28;20448;-86
2022/12/24 11:09:29;;;;;;;0.20;0.20;;;;;;;;;;5071520;28;20143;-87
2022/12/24 11:12:03;;;;;;;6.68;1.00;;;;;;;;;;5074043;28;20038;-87
2022/12/24 11:14:46;;;;;;;0.20;0.10;;;;;;;;;;5072775;28;20066;-85
2022/12/24 11:17:22;;;;;;;0.20;0.10;;;;;;;;;;5064689;28;20138;-86
2022/12/24 11:20:02;;;;;;;0.20;0.10;;;;;;;;;;5080272;28;20117;-86
2022/12/24 11:22:32;;;;;;;0.20;0.17;;;;;;;;;;5046834;28;20040;-86
2022/12/24 11:25:21;;;;;;;0.65;0.63;;;;;;;;;;5057345;28;20032;-85
2022/12/24 11:27:56;;;;;;;0.20;0.10;;;;;;;;;;5057494;28;20051;-87
2022/12/24 11:30:29;;;;;;;0.20;0.10;;;;;;;;;;5034388;28;20043;-86
2022/12/24 11:33:02;;;;;;;0.20;0.10;;;;;;;;;;5053464;28;20364;-85
2022/12/24 11:35:28;;;;;;;;;;;;;;;;;;5057312;28;20046;-87
2022/12/24 11:37:56;;;;;;;0.20;0.10;;;;;;;;;;5035230;28;20217;-88
2022/12/24 11:40:27;;;;;;;0.20;0.10;;;;;;;;;;5055807;28;20119;-82
2022/12/24 11:42:59;;;;;;;0.20;0.10;;;;;;;;;;5058908;28;20044;-87
2022/12/24 11:45:29;;;;;;;0.20;0.10;;;;;;;;;;5056715;28;20048;-86
2022/12/24 11:47:57;;;;;;;0.20;0.10;;;;;;;;;;5054476;28;20040;-86
2022/12/24 11:50:23;;;;;;;1.27;0.65;;;;;;;;;;5045795;28;20252;-87
2022/12/24 11:52:52;;;;;;;0.22;0.22;;;;;;;;;;5074182;28;20046;-86
2022/12/24 11:55:35;;;;;;;0.20;0.10;;;;;;;;;;5048676;28;20061;-87
2022/12/24 11:58:05;;;;;;;0.20;0.10;;;;;;;;;;5053677;28;20042;-86
2022/12/24 12:00:31;;;;;;;0.20;0.10;;;;;;;;;;5073925;28;20043;-86
2022/12/24 12:02:59;;;;;;;0.20;0.10;;;;;;;;;;5055408;28;20054;-83
2022/12/24 12:05:27;;;;;;;0.20;0.20;;;;;;;;;;5038510;28;20086;-85
2022/12/24 12:07:56;;;;;;;0.20;0.10;;;;;;;;;;5065196;28;20121;-87
2022/12/24 12:10:31;;;;;;;0.20;0.10;;;;;;;;;;5049934;28;22288;-87
2022/12/24 12:13:05;;;;;;;0.20;0.10;;;;;;;;;;5058764;28;20109;-86
2022/12/24 12:15:37;;;;;;;0.20;0.10;;;;;;;;;;5077533;28;20055;-88
2022/12/24 12:18:08;;;;;;;0.20;0.10;;;;;;;;;;5058706;28;20090;-85
2022/12/24 12:20:37;;;;;;;0.20;0.10;;;;;;;;;;5054992;28;20048;-87
2022/12/24 12:23:18;;;;;;;0.20;0.10;;;;;;;;;;5060444;28;20036;-87
2022/12/24 12:25:44;;;;;;;0.20;0.10;;;;;;;;;;5074859;28;20142;-82
2022/12/24 12:28:32;;;;;;;0.20;0.10;;;;;;;;;;5063716;28;20140;-87
2022/12/24 12:31:17;;;;;;;0.20;0.10;;;;;;;;;;5069904;28;20557;-86
2022/12/24 12:33:49;;;;;;;0.30;0.30;;;;;;;;;;5075596;28;20055;-86
2022/12/24 12:36:17;;;;;;;0.20;0.10;;;;;;;;;;5037271;28;20041;-87
2022/12/24 12:38:43;;;;;;;0.20;0.10;;;;;;;;;;5070478;28;21754;-82
2022/12/24 12:41:21;;;;;;;0.20;0.10;;;;;;;;;;5054923;28;20043;-89
2022/12/24 12:44:05;;;;;;;0.20;0.17;;;;;;;;;;5073975;28;20092;-90
2022/12/24 12:46:44;;;;;;;0.20;0.10;;;;;;;;;;5055786;28;20486;-88
2022/12/24 12:49:10;;;;;;;0.20;0.10;;;;;;;;;;5055337;28;20055;-87
2022/12/24 12:51:36;;;;;;;0.95;0.85;;;;;;;;;;5055433;28;20036;-87
2022/12/24 12:54:07;;;;;;;0.20;0.10;;;;;;;;;;5050337;28;20446;-85
2022/12/24 12:56:38;;;;;;;0.20;0.10;;;;;;;;;;5058413;28;20766;-90
2022/12/24 12:59:21;;;;;;;0.57;0.20;;;;;;;;;;5072777;28;20073;-83
2022/12/24 13:01:59;;;;;;;0.20;0.10;;;;;;;;;;5037218;28;20043;-87
2022/12/24 13:04:25;;;;;;;0.20;0.10;;;;;;;;;;5059240;28;20592;-87
2022/12/24 13:07:03;;;;;;;0.20;0.10;;;;;;;;;;5051841;28;20487;-86
2022/12/24 13:09:36;;;;;;;0.20;0.10;;;;;;;;;;5055763;28;20039;-84
2022/12/24 13:12:18;;;;;;;0.20;0.10;;;;;;;;;;5049893;28;20044;-86
2022/12/24 13:14:57;;;;;;;0.35;0.35;;;;;;;;;;5032118;28;20552;-86
2022/12/24 13:17:42;;;;;;;0.20;0.10;;;;;;;;;;5053049;28;20093;-86
2022/12/24 13:20:21;;;;;;;0.20;0.10;;;;;;;;;;5034694;28;20076;-86
2022/12/24 13:22:48;;;;;;;0.20;0.10;;;;;;;;;;5039174;28;20044;-83
2022/12/24 13:25:20;;;;;;;2.55;0.80;;;;;;;;;;5035888;28;20407;-87
2022/12/24 13:27:46;;;;;;;0.20;0.10;;;;;;;;;;5054747;28;20195;-86
2022/12/24 13:30:32;;;;;;;0.20;0.10;;;;;;;;;;5073546;28;20040;-87
2022/12/24 13:33:02;;;;;;;0.20;0.10;;;;;;;;;;5054784;28;21646;-86
2022/12/24 13:35:30;;;;;;;0.20;0.10;;;;;;;;;;5053544;28;20042;-87
2022/12/24 13:38:16;;;;;;;0.20;0.10;;;;;;;;;;5049498;28;20652;-87
2022/12/24 13:40:42;;;;;;;0.20;0.10;;;;;;;;;;5040489;28;20733;-85
2022/12/24 13:43:11;;;;;;;0.20;0.10;;;;;;;;;;5033121;28;20081;-85
2022/12/24 13:45:40;;;;;;;0.20;0.10;;;;;;;;;;5051203;28;20036;-85
2022/12/24 13:48:06;;;;;;;0.20;0.10;;;;;;;;;;5050746;28;20043;-86
2022/12/24 13:50:37;;;;;;;0.20;0.10;;;;;;;;;;5054141;28;20047;-85
2022/12/24 13:53:04;;;;;;;0.20;0.10;;;;;;;;;;5060017;28;20049;-87
2022/12/24 13:55:30;;;;;;;0.20;0.10;;;;;;;;;;5070619;28;20050;-85
2022/12/24 13:57:58;;;;;;;0.20;0.10;;;;;;;;;;5052744;28;20460;-85
2022/12/24 14:00:29;;;;;;;0.20;0.10;;;;;;;;;;5052648;28;20036;-86
2022/12/24 14:03:14;;;;;;;0.20;0.10;;;;;;;;;;5055855;28;20039;-83
2022/12/24 14:05:43;;;;;;;0.20;0.10;;;;;;;;;;5051170;28;20570;-83
2022/12/24 14:08:35;;;;;;;0.20;0.10;;;;;;;;;;5054610;28;20075;-86
2022/12/24 14:11:04;;;;;;;0.20;0.10;;;;;;;;;;5032615;28;20180;-86
2022/12/24 14:13:39;;;;;;;0.20;0.10;;;;;;;;;;5039628;28;20485;-85
2022/12/24 14:16:11;;;;;;;0.20;0.10;;;;;;;;;;5068937;28;20068;-86
2022/12/24 14:18:42;;;;;;;14.48;0.98;;;;;;;;;;5073812;28;20116;-86
2022/12/24 14:21:15;;;;;;;0.20;0.10;;;;;;;;;;5070391;28;20037;-86
2022/12/24 14:23:53;;;;;;;0.20;0.10;;;;;;;;;;5053217;28;20422;-86
2022/12/24 14:26:21;;;;;;;0.20;0.10;;;;;;;;;;5052777;28;20570;-86
2022/12/24 14:28:55;;;;;;;0.20;0.10;;;;;;;;;;5054282;28;20094;-82
2022/12/24 14:31:22;;;;;;;0.20;0.10;;;;;;;;;;5056330;28;20244;-86
2022/12/24 14:33:48;;;;;;;1.15;1.00;;;;;;;;;;5069826;28;20517;-85
2022/12/24 14:36:18;;;;;;;0.35;0.35;;;;;;;;;;5053529;28;20243;-85
2022/12/24 14:38:44;;;;;;;0.20;0.10;;;;;;;;;;5067214;28;20177;-84
2022/12/24 14:41:13;;;;;;;0.20;0.10;;;;;;;;;;5052162;28;20451;-86
2022/12/24 14:43:42;;;;;;;0.20;0.10;;;;;;;;;;5053305;28;20599;-85
2022/12/24 14:46:08;;;;;;;0.20;0.10;;;;;;;;;;5071208;28;20040;-85
2022/12/24 14:48:45;;;;;;;0.20;0.10;;;;;;;;;;5052772;28;20492;-86
2022/12/24 14:51:22;;;;;;;0.20;0.15;;;;;;;;;;5084679;22;20041;-84
2022/12/24 14:54:02;;;;;;;0.20;0.10;;;;;;;;;;5060022;28;20128;-85
2022/12/24 14:56:28;;;;;;;0.20;0.10;;;;;;;;;;5049235;28;20437;-83
2022/12/24 14:59:03;;;;;;;0.20;0.10;;;;;;;;;;5029246;28;20094;-85
2022/12/24 15:01:38;;;;;;;0.20;0.10;;;;;;;;;;5027375;28;20037;-86
2022/12/24 15:04:10;;;;;;;0.20;0.10;;;;;;;;;;5040823;28;20041;-86
2022/12/24 15:06:40;;;;;;;0.20;0.10;;;;;;;;;;5022539;28;20086;-85
2022/12/24 15:09:26;;;;;;;0.20;0.10;;;;;;;;;;5023512;28;20048;-85
2022/12/24 15:11:58;;;;;;;0.20;0.10;;;;;;;;;;5041532;28;20098;-87
2022/12/24 15:14:34;;;;;;;0.20;0.10;;;;;;;;;;5027606;28;20087;-84
2022/12/24 15:17:09;;;;;;;0.20;0.10;;;;;;;;;;5042201;28;20037;-84
2022/12/24 15:19:37;;;;;;;0.20;0.20;;;;;;;;;;5024629;28;20098;-84
2022/12/24 15:22:04;;;;;;;0.20;0.10;;;;;;;;;;5027912;28;20041;-87
2022/12/24 15:24:34;;;;;;;0.20;0.10;;;;;;;;;;5027348;28;21702;-84
2022/12/24 15:27:05;;;;;;;0.20;0.10;;;;;;;;;;5043447;28;20033;-83
2022/12/24 15:29:41;;;;;;;0.20;0.10;;;;;;;;;;5029924;28;20048;-84
2022/12/24 15:32:11;;;;;;;0.20;0.10;;;;;;;;;;5038771;28;20128;-84
2022/12/24 15:34:38;;;;;;;0.20;0.10;;;;;;;;;;5042495;28;20045;-84
2022/12/24 15:37:10;;;;;;;0.20;0.10;;;;;;;;;;5043420;28;20545;-84
2022/12/24 15:39:40;;;;;;;0.20;0.10;;;;;;;;;;5031324;28;20048;-83
2022/12/24 15:42:13;;;;;;;0.20;0.10;;;;;;;;;;5028704;28;20495;-84
2022/12/24 15:44:44;;;;;;;0.20;0.10;;;;;;;;;;5040102;28;20040;-82
2022/12/24 15:47:16;;;;;;;0.20;0.10;;;;;;;;;;5042294;28;20037;-83
2022/12/24 15:49:44;;;;;;;0.20;0.10;;;;;;;;;;5046368;28;22109;-82
2022/12/24 15:52:12;;;;;;;0.20;0.10;;;;;;;;;;5043378;28;20529;-84
2022/12/24 15:54:43;;;;;;;0.20;0.10;;;;;;;;;;5024617;28;20400;-85
2022/12/24 15:57:14;;;;;;;0.40;0.35;;;;;;;;;;5053229;28;20036;-83
2022/12/24 15:59:40;;;;;;;0.20;0.10;;;;;;;;;;5024424;28;20101;-82
2022/12/24 16:02:26;;;;;;;0.20;0.10;;;;;;;;;;5017886;28;20032;-84